Time;durP1;ratioP1;P1;durP2;ratioP2;P2;SDS_P1;SDS_P2;PMS_P1;PMS_P2;Temp;Humidity;BMP_temperature;BMP_pressure;BME280_temperature;BME280_humidity;BME280_pressure;Samples;Min_cycle;Max_cycle;Signal;HPM_P1;HPM_P2
2023/01/04 00:02:10;;;;;;;2.63;1.70;;;;;;;;;;5049071;28;20731;-66
2023/01/04 00:04:37;;;;;;;4.93;2.37;;;;;;;;;;5069631;28;20209;-66
2023/01/04 00:07:04;;;;;;;1.97;1.77;;;;;;;;;;5062296;28;20214;-65
2023/01/04 00:09:31;;;;;;;3.30;2.30;;;;;;;;;;5054142;28;20235;-65
2023/01/04 00:11:58;;;;;;;2.57;2.03;;;;;;;;;;5071782;28;20203;-65
2023/01/04 00:14:25;;;;;;;2.70;2.23;;;;;;;;;;5055248;28;20204;-66
2023/01/04 00:16:53;;;;;;;2.17;2.07;;;;;;;;;;5066477;28;20756;-66
2023/01/04 00:19:20;;;;;;;3.57;2.27;;;;;;;;;;5055619;28;20206;-66
2023/01/04 00:21:47;;;;;;;2.50;2.30;;;;;;;;;;5068390;28;20213;-65
2023/01/04 00:24:15;;;;;;;3.37;2.23;;;;;;;;;;5056247;28;20210;-65
2023/01/04 00:26:42;;;;;;;3.13;2.40;;;;;;;;;;5067289;28;20685;-66
2023/01/04 00:29:10;;;;;;;9.43;2.77;;;;;;;;;;5056180;28;20231;-67
2023/01/04 00:31:37;;;;;;;2.13;1.97;;;;;;;;;;5065656;28;20231;-65
2023/01/04 00:34:06;;;;;;;5.53;2.67;;;;;;;;;;5071436;28;20734;-65
2023/01/04 00:36:34;;;;;;;3.80;2.27;;;;;;;;;;5064658;28;20235;-66
2023/01/04 00:39:09;;;;;;;9.87;2.30;;;;;;;;;;5061828;28;20237;-66
2023/01/04 00:41:37;;;;;;;2.73;2.47;;;;;;;;;;5072163;28;20226;-65
2023/01/04 00:44:04;;;;;;;5.07;2.63;;;;;;;;;;5061357;28;20230;-66
2023/01/04 00:46:31;;;;;;;4.10;1.97;;;;;;;;;;5071796;28;20218;-66
2023/01/04 00:48:59;;;;;;;1.93;1.80;;;;;;;;;;5060394;28;20199;-66
2023/01/04 00:51:27;;;;;;;3.03;2.70;;;;;;;;;;5071830;28;20214;-65
2023/01/04 00:53:54;;;;;;;6.40;2.10;;;;;;;;;;5059699;28;20214;-65
2023/01/04 00:56:21;;;;;;;2.63;2.43;;;;;;;;;;5062055;28;20233;-65
2023/01/04 00:58:49;;;;;;;4.33;2.40;;;;;;;;;;5064984;28;20215;-65
2023/01/04 01:01:16;;;;;;;2.73;2.47;;;;;;;;;;5052103;28;20211;-65
2023/01/04 01:03:43;;;;;;;6.10;2.80;;;;;;;;;;5051794;28;20268;-66
2023/01/04 01:06:11;;;;;;;2.20;2.00;;;;;;;;;;5051363;28;20253;-66
2023/01/04 01:08:39;;;;;;;3.90;2.00;;;;;;;;;;5050920;28;20208;-65
2023/01/04 01:11:07;;;;;;;4.40;2.50;;;;;;;;;;5051429;28;20207;-66
2023/01/04 01:13:35;;;;;;;3.83;2.27;;;;;;;;;;5054200;28;20261;-65
2023/01/04 01:16:06;;;;;;;3.13;2.60;;;;;;;;;;5064386;28;20289;-66
2023/01/04 01:18:33;;;;;;;4.13;3.20;;;;;;;;;;5056053;28;20223;-65
2023/01/04 01:21:00;;;;;;;2.57;2.07;;;;;;;;;;5064180;28;20219;-66
2023/01/04 01:23:27;;;;;;;2.00;1.90;;;;;;;;;;5058772;28;20203;-65
2023/01/04 01:26:00;;;;;;;2.83;2.63;;;;;;;;;;5071355;28;20627;-65
2023/01/04 01:28:27;;;;;;;4.50;2.50;;;;;;;;;;5057885;28;20704;-66
2023/01/04 01:30:54;;;;;;;8.93;2.63;;;;;;;;;;5051244;28;20206;-66
2023/01/04 01:33:21;;;;;;;2.77;2.47;;;;;;;;;;5061267;28;20680;-65
2023/01/04 01:35:48;;;;;;;5.23;2.73;;;;;;;;;;5051048;28;20215;-65
2023/01/04 01:38:15;;;;;;;3.53;3.03;;;;;;;;;;5052220;28;20228;-66
2023/01/04 01:40:42;;;;;;;6.70;2.90;;;;;;;;;;5070813;28;20695;-65
2023/01/04 01:43:15;;;;;;;3.63;2.80;;;;;;;;;;5068957;28;20666;-65
2023/01/04 01:45:43;;;;;;;2.87;2.57;;;;;;;;;;5070012;28;20211;-65
2023/01/04 01:48:12;;;;;;;2.30;2.13;;;;;;;;;;5060107;28;20261;-64
2023/01/04 01:50:41;;;;;;;10.17;3.20;;;;;;;;;;5070566;28;20926;-65
2023/01/04 01:53:09;;;;;;;3.60;2.93;;;;;;;;;;5060834;28;20195;-65
2023/01/04 01:55:36;;;;;;;4.87;2.97;;;;;;;;;;5057107;28;20234;-65
2023/01/04 01:58:05;;;;;;;4.10;2.73;;;;;;;;;;5064678;28;20230;-65
2023/01/04 02:00:32;;;;;;;3.83;2.70;;;;;;;;;;5062911;28;20227;-65
2023/01/04 02:03:05;;;;;;;4.93;3.17;;;;;;;;;;5064669;28;20723;-65
2023/01/04 02:05:33;;;;;;;4.40;3.10;;;;;;;;;;5062156;28;20211;-65
2023/01/04 02:08:01;;;;;;;3.23;2.93;;;;;;;;;;5064727;28;20209;-65
2023/01/04 02:10:28;;;;;;;4.97;2.97;;;;;;;;;;5064436;28;20239;-66
2023/01/04 02:12:55;;;;;;;4.73;3.30;;;;;;;;;;5063881;28;20206;-65
2023/01/04 02:15:24;;;;;;;5.13;3.00;;;;;;;;;;5066264;28;20688;-65
2023/01/04 02:17:54;;;;;;;3.67;3.03;;;;;;;;;;5050780;28;20380;-65
2023/01/04 02:20:34;;;;;;;5.23;3.00;;;;;;;;;;5055217;28;20207;-65
2023/01/04 02:23:16;;;;;;;5.13;3.47;;;;;;;;;;5050120;28;20375;-65
2023/01/04 02:26:02;;;;;;;4.23;3.43;;;;;;;;;;5054776;28;20195;-66
2023/01/04 02:28:36;;;;;;;2.97;2.77;;;;;;;;;;5069947;28;20203;-66
2023/01/04 02:31:17;;;;;;;7.37;3.77;;;;;;;;;;5056799;28;20199;-66
2023/01/04 02:33:48;;;;;;;4.20;3.40;;;;;;;;;;5052236;28;20214;-65
2023/01/04 02:36:21;;;;;;;2.90;2.70;;;;;;;;;;5054019;28;20222;-65
2023/01/04 02:38:54;;;;;;;4.30;3.13;;;;;;;;;;5051085;28;20227;-66
2023/01/04 02:41:25;;;;;;;4.30;3.57;;;;;;;;;;5066444;28;20752;-65
2023/01/04 02:46:44;;;;;;;5.03;3.87;;;;;;;;;;5050286;28;20291;-65
2023/01/04 02:51:55;;;;;;;8.60;3.33;;;;;;;;;;5069389;28;20196;-65
2023/01/04 02:54:24;;;;;;;6.20;3.53;;;;;;;;;;5059425;28;20251;-66
2023/01/04 02:57:00;;;;;;;4.63;3.33;;;;;;;;;;5049455;28;20725;-65
2023/01/04 02:59:34;;;;;;;8.90;4.20;;;;;;;;;;5057700;28;20303;-65
2023/01/04 03:07:49;;;;;;;4.27;3.00;;;;;;;;;;5066082;28;20207;-65
2023/01/04 03:10:21;;;;;;;5.73;4.60;;;;;;;;;;5063603;28;20234;-65
2023/01/04 03:12:51;;;;;;;5.70;4.40;;;;;;;;;;5065380;28;20203;-66
2023/01/04 03:15:20;;;;;;;9.10;4.40;;;;;;;;;;5062114;28;20688;-65
2023/01/04 03:17:51;;;;;;;5.00;4.07;;;;;;;;;;5065248;28;20224;-65
2023/01/04 03:20:19;;;;;;;6.73;4.87;;;;;;;;;;5062384;28;20226;-65
2023/01/04 03:36:45;;;;;;;5.10;4.07;;;;;;;;;;5049477;28;20202;-65
2023/01/04 03:50:34;;;;;;;10.50;4.70;;;;;;;;;;5066679;28;20210;-65
2023/01/04 03:53:01;;;;;;;6.47;4.40;;;;;;;;;;5052891;28;20211;-65
2023/01/04 03:55:29;;;;;;;4.93;3.97;;;;;;;;;;5061452;28;20231;-66
2023/01/04 03:57:56;;;;;;;8.93;5.20;;;;;;;;;;5052948;28;20326;-65
2023/01/04 04:00:23;;;;;;;5.13;4.63;;;;;;;;;;5063266;28;20226;-66
2023/01/04 04:02:50;;;;;;;7.20;5.13;;;;;;;;;;5052780;28;20295;-66
2023/01/04 04:10:49;;;;;;;4.80;4.27;;;;;;;;;;5062509;28;20234;-65
2023/01/04 04:13:16;;;;;;;5.50;4.33;;;;;;;;;;5072501;28;20233;-65
2023/01/04 04:15:43;;;;;;;4.37;3.93;;;;;;;;;;5063059;28;20257;-66
2023/01/04 04:18:10;;;;;;;6.60;4.63;;;;;;;;;;5072511;28;20936;-65
2023/01/04 04:20:38;;;;;;;5.57;4.03;;;;;;;;;;5062877;28;20207;-66
2023/01/04 04:23:06;;;;;;;4.73;4.23;;;;;;;;;;5067202;28;20208;-65
2023/01/04 04:25:33;;;;;;;8.00;3.83;;;;;;;;;;5062836;28;20207;-65
2023/01/04 04:28:00;;;;;;;5.80;4.00;;;;;;;;;;5055748;28;20199;-65
2023/01/04 04:30:27;;;;;;;5.00;4.10;;;;;;;;;;5072039;28;20214;-65
2023/01/04 04:32:54;;;;;;;8.07;3.50;;;;;;;;;;5069413;28;20203;-65
2023/01/04 04:35:21;;;;;;;9.33;3.67;;;;;;;;;;5052144;28;20216;-66
2023/01/04 04:37:48;;;;;;;6.10;3.97;;;;;;;;;;5060752;28;20222;-65
2023/01/04 04:42:57;;;;;;;4.57;3.70;;;;;;;;;;5052286;28;20203;-65
2023/01/04 04:45:24;;;;;;;5.17;3.10;;;;;;;;;;5051998;28;20686;-65
2023/01/04 04:47:51;;;;;;;5.43;3.57;;;;;;;;;;5051645;28;20207;-65
2023/01/04 04:50:18;;;;;;;4.17;3.20;;;;;;;;;;5051021;28;20216;-66
2023/01/04 04:52:45;;;;;;;4.43;3.23;;;;;;;;;;5070462;28;20211;-66
2023/01/04 04:55:12;;;;;;;5.53;3.33;;;;;;;;;;5071059;28;20211;-65
2023/01/04 04:57:41;;;;;;;3.03;2.73;;;;;;;;;;5054146;28;20231;-65
2023/01/04 05:00:08;;;;;;;6.60;3.13;;;;;;;;;;5069925;28;20684;-65
2023/01/04 05:02:35;;;;;;;3.30;3.00;;;;;;;;;;5054943;28;20734;-66
2023/01/04 05:05:02;;;;;;;6.80;3.30;;;;;;;;;;5052031;28;20206;-66
2023/01/04 05:07:29;;;;;;;3.30;2.77;;;;;;;;;;5066242;28;20577;-65
2023/01/04 05:09:56;;;;;;;2.73;2.53;;;;;;;;;;5062310;28;20239;-65
2023/01/04 05:15:10;;;;;;;2.77;2.53;;;;;;;;;;5056819;28;20202;-65
2023/01/04 05:17:37;;;;;;;2.57;2.17;;;;;;;;;;5069535;28;20207;-65
2023/01/04 05:20:04;;;;;;;3.07;2.40;;;;;;;;;;5066830;28;20199;-65
2023/01/04 05:22:31;;;;;;;3.83;3.07;;;;;;;;;;5057446;28;20211;-65
2023/01/04 05:24:59;;;;;;;2.30;2.20;;;;;;;;;;5071197;28;20225;-66
2023/01/04 05:27:26;;;;;;;3.40;3.00;;;;;;;;;;5069012;28;20206;-65
2023/01/04 05:32:38;;;;;;;3.40;3.20;;;;;;;;;;5053760;28;20322;-65
2023/01/04 05:35:06;;;;;;;2.70;2.50;;;;;;;;;;5071277;28;20284;-65
2023/01/04 05:37:33;;;;;;;8.53;3.33;;;;;;;;;;5070153;28;20210;-65
2023/01/04 05:40:00;;;;;;;4.30;2.23;;;;;;;;;;5070592;28;20215;-65
2023/01/04 05:42:27;;;;;;;3.57;2.63;;;;;;;;;;5069460;28;20207;-65
2023/01/04 05:44:55;;;;;;;4.40;3.10;;;;;;;;;;5071037;28;20297;-65
2023/01/04 05:47:23;;;;;;;4.23;3.07;;;;;;;;;;5068592;28;20207;-65
2023/01/04 05:49:51;;;;;;;3.00;2.80;;;;;;;;;;5062149;28;20195;-65
2023/01/04 05:52:18;;;;;;;3.70;3.00;;;;;;;;;;5051007;28;20204;-66
2023/01/04 05:54:46;;;;;;;2.33;2.20;;;;;;;;;;5053797;28;20206;-65
2023/01/04 05:57:13;;;;;;;4.17;2.80;;;;;;;;;;5070084;28;20231;-65
2023/01/04 05:59:40;;;;;;;3.37;2.87;;;;;;;;;;5070529;28;20308;-65
2023/01/04 06:02:07;;;;;;;3.83;2.80;;;;;;;;;;5063516;28;20203;-65
2023/01/04 06:04:35;;;;;;;1.43;1.33;;;;;;;;;;5059663;28;20214;-64
2023/01/04 06:07:04;;;;;;;2.30;2.20;;;;;;;;;;5063758;28;20210;-65
2023/01/04 06:09:31;;;;;;;4.40;2.60;;;;;;;;;;5069808;28;20242;-64
2023/01/04 06:11:58;;;;;;;2.27;2.17;;;;;;;;;;5062034;28;20218;-65
2023/01/04 06:14:25;;;;;;;2.67;2.43;;;;;;;;;;5050249;28;20210;-64
2023/01/04 06:16:52;;;;;;;2.87;2.67;;;;;;;;;;5056668;28;20588;-65
2023/01/04 06:19:19;;;;;;;4.13;2.60;;;;;;;;;;5050136;28;20235;-65
2023/01/04 06:21:46;;;;;;;3.87;2.77;;;;;;;;;;5057543;28;20207;-65
2023/01/04 06:24:15;;;;;;;4.60;2.97;;;;;;;;;;5069705;28;20211;-64
2023/01/04 06:26:42;;;;;;;4.13;3.73;;;;;;;;;;5063996;28;20572;-64
2023/01/04 06:29:09;;;;;;;4.53;2.40;;;;;;;;;;5066892;28;20199;-65
2023/01/04 06:31:36;;;;;;;2.70;2.50;;;;;;;;;;5050970;28;20211;-64
2023/01/04 06:34:03;;;;;;;3.00;2.70;;;;;;;;;;5053264;28;20348;-64
2023/01/04 06:36:30;;;;;;;4.00;3.30;;;;;;;;;;5051084;28;20195;-64
2023/01/04 06:38:58;;;;;;;2.17;2.00;;;;;;;;;;5049477;28;20231;-65
2023/01/04 06:41:26;;;;;;;4.47;2.47;;;;;;;;;;5049498;28;20349;-64
2023/01/04 06:43:53;;;;;;;3.40;3.10;;;;;;;;;;5049801;28;20926;-64
2023/01/04 06:46:20;;;;;;;4.50;2.37;;;;;;;;;;5049259;28;20219;-64
2023/01/04 06:48:47;;;;;;;2.93;2.60;;;;;;;;;;5049337;28;20560;-64
2023/01/04 06:51:14;;;;;;;3.67;3.30;;;;;;;;;;5048871;28;20207;-65
2023/01/04 06:53:41;;;;;;;4.67;3.10;;;;;;;;;;5049561;28;20204;-65
2023/01/04 06:56:09;;;;;;;4.13;2.57;;;;;;;;;;5049517;28;20234;-66
2023/01/04 06:58:37;;;;;;;4.13;3.13;;;;;;;;;;5049187;28;20218;-65
2023/01/04 07:01:04;;;;;;;2.57;2.37;;;;;;;;;;5049515;28;20629;-65
2023/01/04 07:03:31;;;;;;;4.67;3.13;;;;;;;;;;5054764;28;20258;-65
2023/01/04 07:05:59;;;;;;;3.13;2.67;;;;;;;;;;5049776;28;20207;-65
2023/01/04 07:08:26;;;;;;;3.10;1.47;;;;;;;;;;5062692;28;20650;-63
2023/01/04 07:10:53;;;;;;;3.07;2.60;;;;;;;;;;5052538;28;20232;-64
2023/01/04 07:13:20;;;;;;;6.70;3.27;;;;;;;;;;5067927;28;20713;-65
2023/01/04 07:15:48;;;;;;;11.13;3.50;;;;;;;;;;5049634;28;20425;-65
2023/01/04 07:18:15;;;;;;;6.17;3.20;;;;;;;;;;5049225;28;20212;-67
2023/01/04 07:20:42;;;;;;;2.03;1.90;;;;;;;;;;5048996;28;20239;-65
2023/01/04 07:23:09;;;;;;;3.50;2.27;;;;;;;;;;5049231;28;20208;-65
2023/01/04 07:25:37;;;;;;;2.87;2.23;;;;;;;;;;5059529;28;20222;-65
2023/01/04 07:28:04;;;;;;;2.70;1.90;;;;;;;;;;5068442;28;20269;-65
2023/01/04 07:30:31;;;;;;;3.37;2.23;;;;;;;;;;5066148;28;20256;-65
2023/01/04 07:32:59;;;;;;;2.10;1.97;;;;;;;;;;5069628;28;20218;-65
2023/01/04 07:35:27;;;;;;;5.13;2.73;;;;;;;;;;5069340;28;20646;-66
2023/01/04 07:37:54;;;;;;;1.63;1.53;;;;;;;;;;5069317;28;20598;-65
2023/01/04 07:40:21;;;;;;;3.53;2.50;;;;;;;;;;5063705;28;20228;-65
2023/01/04 07:42:54;;;;;;;2.77;1.90;;;;;;;;;;5056008;28;20199;-66
2023/01/04 07:45:21;;;;;;;7.83;2.60;;;;;;;;;;5064175;28;20295;-65
2023/01/04 07:47:48;;;;;;;2.50;2.30;;;;;;;;;;5049483;28;20219;-65
2023/01/04 07:50:16;;;;;;;1.80;1.70;;;;;;;;;;5060288;28;20199;-65
2023/01/04 07:52:43;;;;;;;2.37;2.17;;;;;;;;;;5068713;28;20207;-65
2023/01/04 07:55:11;;;;;;;2.20;2.00;;;;;;;;;;5068860;28;20199;-65
2023/01/04 07:57:38;;;;;;;2.10;2.00;;;;;;;;;;5069221;28;20199;-65
2023/01/04 08:00:05;;;;;;;1.60;1.50;;;;;;;;;;5069113;28;20223;-65
2023/01/04 08:02:32;;;;;;;2.87;1.93;;;;;;;;;;5068845;28;20224;-65
2023/01/04 08:04:59;;;;;;;1.63;1.37;;;;;;;;;;5068257;28;20207;-65
2023/01/04 08:07:28;;;;;;;1.93;1.83;;;;;;;;;;5069238;28;20692;-65
2023/01/04 08:09:55;;;;;;;1.67;1.57;;;;;;;;;;5068415;28;20227;-65
2023/01/04 08:12:22;;;;;;;1.80;1.70;;;;;;;;;;5068930;28;20215;-65
2023/01/04 08:14:49;;;;;;;1.67;1.57;;;;;;;;;;5067455;28;20207;-65
2023/01/04 08:17:16;;;;;;;2.03;1.83;;;;;;;;;;5069078;28;20215;-65
2023/01/04 08:19:45;;;;;;;2.00;1.30;;;;;;;;;;5068767;28;20281;-65
2023/01/04 08:22:12;;;;;;;1.83;1.57;;;;;;;;;;5063734;28;20207;-65
2023/01/04 08:24:40;;;;;;;2.73;1.27;;;;;;;;;;5054011;28;20662;-65
2023/01/04 08:27:09;;;;;;;3.67;1.50;;;;;;;;;;5053192;28;20208;-65
2023/01/04 08:29:37;;;;;;;1.93;1.27;;;;;;;;;;5072044;28;20203;-66
2023/01/04 08:32:04;;;;;;;2.00;1.37;;;;;;;;;;5063940;28;20204;-65
2023/01/04 08:34:32;;;;;;;1.57;1.40;;;;;;;;;;5051588;28;20273;-66
2023/01/04 08:36:59;;;;;;;1.67;1.07;;;;;;;;;;5051849;28;20440;-66
2023/01/04 08:39:28;;;;;;;2.50;1.20;;;;;;;;;;5051785;28;20235;-66
2023/01/04 08:41:56;;;;;;;1.57;1.50;;;;;;;;;;5051193;28;20206;-65
2023/01/04 08:44:24;;;;;;;2.70;1.70;;;;;;;;;;5051589;28;20208;-64
2023/01/04 08:46:51;;;;;;;1.13;1.07;;;;;;;;;;5051546;28;20278;-66
2023/01/04 08:49:19;;;;;;;1.00;1.00;;;;;;;;;;5052025;28;20203;-65
2023/01/04 08:51:46;;;;;;;1.77;1.33;;;;;;;;;;5051523;28;20636;-67
2023/01/04 08:54:13;;;;;;;1.20;1.10;;;;;;;;;;5061419;28;20228;-65
2023/01/04 08:56:41;;;;;;;0.80;0.80;;;;;;;;;;5070335;28;20721;-63
2023/01/04 08:59:11;;;;;;;0.83;0.83;;;;;;;;;;5070198;28;20284;-65
2023/01/04 09:01:38;;;;;;;0.90;0.90;;;;;;;;;;5061114;28;20199;-63
2023/01/04 09:04:06;;;;;;;1.50;0.93;;;;;;;;;;5066254;28;20686;-64
2023/01/04 09:06:33;;;;;;;1.20;1.10;;;;;;;;;;5051559;28;20203;-68
2023/01/04 09:09:00;;;;;;;0.90;0.90;;;;;;;;;;5059486;28;20284;-67
2023/01/04 09:11:27;;;;;;;0.93;0.93;;;;;;;;;;5070265;28;20210;-65
2023/01/04 09:13:55;;;;;;;0.60;0.60;;;;;;;;;;5057246;28;20254;-64
2023/01/04 09:16:24;;;;;;;1.30;0.70;;;;;;;;;;5051495;28;20235;-61
2023/01/04 09:18:51;;;;;;;3.80;0.80;;;;;;;;;;5065957;28;20208;-65
2023/01/04 09:21:19;;;;;;;0.63;0.63;;;;;;;;;;5063005;28;20577;-65
2023/01/04 09:23:46;;;;;;;0.70;0.70;;;;;;;;;;5063037;28;20837;-65
2023/01/04 09:26:14;;;;;;;1.70;0.83;;;;;;;;;;5057719;28;20206;-66
2023/01/04 09:28:42;;;;;;;0.80;0.80;;;;;;;;;;5052319;28;20234;-66
2023/01/04 09:31:10;;;;;;;0.80;0.53;;;;;;;;;;5051695;28;20678;-66
2023/01/04 09:33:38;;;;;;;1.07;0.67;;;;;;;;;;5051156;28;20211;-66
2023/01/04 09:36:06;;;;;;;0.60;0.60;;;;;;;;;;5048923;28;20666;-66
2023/01/04 09:38:33;;;;;;;3.40;0.77;;;;;;;;;;5070195;28;20207;-65
2023/01/04 09:41:05;;;;;;;0.60;0.60;;;;;;;;;;5071084;28;20284;-66
2023/01/04 09:43:37;;;;;;;1.30;0.60;;;;;;;;;;5057630;28;20207;-65
2023/01/04 09:46:06;;;;;;;0.70;0.70;;;;;;;;;;5050944;28;20231;-65
2023/01/04 09:48:34;;;;;;;0.73;0.73;;;;;;;;;;5050735;28;20695;-66
2023/01/04 09:51:05;;;;;;;0.73;0.73;;;;;;;;;;5070114;28;20207;-67
2023/01/04 09:53:36;;;;;;;6.43;1.07;;;;;;;;;;5057678;28;20210;-66
2023/01/04 09:56:07;;;;;;;0.63;0.63;;;;;;;;;;5051386;28;20223;-65
2023/01/04 09:58:36;;;;;;;0.70;0.70;;;;;;;;;;5064200;28;20199;-65
2023/01/04 10:01:04;;;;;;;0.80;0.80;;;;;;;;;;5070831;28;20285;-65
2023/01/04 10:03:32;;;;;;;1.00;1.00;;;;;;;;;;5062021;28;20211;-65
2023/01/04 10:06:01;;;;;;;0.53;0.53;;;;;;;;;;5051637;28;20261;-65
2023/01/04 10:08:31;;;;;;;3.53;1.10;;;;;;;;;;5055566;28;20205;-65
2023/01/04 10:11:06;;;;;;;1.13;1.10;;;;;;;;;;5052240;28;20666;-65
2023/01/04 10:13:43;;;;;;;0.43;0.43;;;;;;;;;;5051004;28;20261;-65
2023/01/04 10:16:15;;;;;;;1.10;0.90;;;;;;;;;;5050398;28;20302;-65
2023/01/04 10:18:47;;;;;;;0.70;0.70;;;;;;;;;;5051340;28;20277;-64
2023/01/04 10:21:32;;;;;;;1.00;1.00;;;;;;;;;;5050403;28;20238;-65
2023/01/04 10:24:04;;;;;;;0.93;0.93;;;;;;;;;;5053934;28;20776;-65
2023/01/04 10:26:34;;;;;;;1.50;0.80;;;;;;;;;;5070256;28;20661;-65
2023/01/04 10:29:11;;;;;;;2.67;1.00;;;;;;;;;;5050116;28;20207;-65
2023/01/04 10:31:41;;;;;;;0.70;0.70;;;;;;;;;;5056124;28;20599;-65
2023/01/04 10:34:16;;;;;;;2.63;0.70;;;;;;;;;;5054875;28;20688;-65
2023/01/04 10:36:44;;;;;;;0.77;0.77;;;;;;;;;;5051163;28;20288;-65
2023/01/04 10:39:14;;;;;;;0.93;0.93;;;;;;;;;;5060607;28;20551;-65
2023/01/04 10:41:42;;;;;;;1.43;0.90;;;;;;;;;;5064609;28;20204;-65
2023/01/04 10:44:15;;;;;;;0.70;0.70;;;;;;;;;;5049957;28;20639;-66
2023/01/04 10:46:45;;;;;;;0.80;0.80;;;;;;;;;;5054522;28;20199;-66
2023/01/04 10:49:17;;;;;;;0.67;0.67;;;;;;;;;;5069679;28;20214;-65
2023/01/04 10:51:47;;;;;;;0.83;0.83;;;;;;;;;;5061043;28;20565;-65
2023/01/04 10:54:19;;;;;;;1.73;0.90;;;;;;;;;;5060786;28;20694;-65
2023/01/04 10:56:51;;;;;;;3.10;0.57;;;;;;;;;;5068991;28;20231;-65
2023/01/04 10:59:20;;;;;;;1.07;1.07;;;;;;;;;;5054088;28;20222;-66
2023/01/04 11:01:50;;;;;;;0.60;0.60;;;;;;;;;;5069430;28;20221;-65
2023/01/04 11:04:22;;;;;;;0.60;0.60;;;;;;;;;;5065529;28;20207;-66
2023/01/04 11:06:53;;;;;;;1.90;1.00;;;;;;;;;;5049344;28;20231;-65
2023/01/04 11:09:23;;;;;;;0.60;0.60;;;;;;;;;;5066322;28;20297;-65
2023/01/04 11:11:50;;;;;;;0.77;0.73;;;;;;;;;;5069131;28;20674;-66
2023/01/04 11:14:18;;;;;;;0.53;0.53;;;;;;;;;;5052273;28;20250;-66
2023/01/04 11:16:47;;;;;;;0.70;0.70;;;;;;;;;;5049426;28;20208;-66
2023/01/04 11:19:14;;;;;;;1.03;0.77;;;;;;;;;;5047701;28;20199;-66
2023/01/04 11:21:43;;;;;;;2.07;0.70;;;;;;;;;;5048607;28;20235;-66
2023/01/04 11:24:11;;;;;;;1.20;0.57;;;;;;;;;;5049895;28;20268;-66
2023/01/04 11:26:43;;;;;;;0.60;0.60;;;;;;;;;;5052212;28;20206;-66
2023/01/04 11:29:16;;;;;;;0.63;0.63;;;;;;;;;;5068935;28;20231;-66
2023/01/04 11:31:45;;;;;;;0.30;0.30;;;;;;;;;;5057170;28;20631;-66
2023/01/04 11:34:13;;;;;;;0.93;0.83;;;;;;;;;;5055983;28;20487;-66
2023/01/04 11:36:41;;;;;;;0.97;0.60;;;;;;;;;;5069083;28;20241;-66
2023/01/04 11:39:17;;;;;;;0.50;0.50;;;;;;;;;;5068714;28;20207;-66
2023/01/04 11:41:54;;;;;;;0.60;0.60;;;;;;;;;;5068944;28;20321;-66
2023/01/04 11:44:21;;;;;;;0.30;0.30;;;;;;;;;;5053593;28;20215;-66
2023/01/04 11:47:05;;;;;;;0.30;0.30;;;;;;;;;;5049116;28;20585;-66
2023/01/04 11:49:35;;;;;;;0.43;0.43;;;;;;;;;;5048472;28;20215;-66
2023/01/04 11:52:02;;;;;;;0.53;0.53;;;;;;;;;;5053147;28;20222;-66
2023/01/04 11:54:29;;;;;;;0.50;0.50;;;;;;;;;;5068573;28;20215;-66
2023/01/04 11:57:02;;;;;;;0.30;0.30;;;;;;;;;;5068695;28;20225;-66
2023/01/04 11:59:29;;;;;;;0.83;0.67;;;;;;;;;;5069711;28;20211;-65
2023/01/04 12:02:26;;;;;;;0.40;0.40;;;;;;;;;;5072322;28;20246;-65
2023/01/04 12:04:54;;;;;;;1.07;0.53;;;;;;;;;;5003486;28;20275;-67
2023/01/04 12:07:27;;;;;;;0.50;0.50;;;;;;;;;;5049441;28;20202;-67
2023/01/04 12:09:54;;;;;;;0.20;0.20;;;;;;;;;;5072059;28;20296;-66
2023/01/04 12:12:29;;;;;;;0.47;0.47;;;;;;;;;;5052742;28;20204;-66
2023/01/04 12:14:56;;;;;;;0.43;0.40;;;;;;;;;;5052094;28;20234;-67
2023/01/04 12:17:25;;;;;;;0.23;0.23;;;;;;;;;;5051735;28;20258;-67
2023/01/04 12:19:54;;;;;;;0.30;0.30;;;;;;;;;;5052303;28;20209;-67
2023/01/04 12:22:23;;;;;;;0.37;0.37;;;;;;;;;;5059268;28;20211;-67
2023/01/04 12:24:50;;;;;;;0.30;0.30;;;;;;;;;;5072757;28;20211;-67
2023/01/04 12:27:17;;;;;;;0.30;0.30;;;;;;;;;;5072169;28;20207;-67
2023/01/04 12:29:53;;;;;;;1.80;0.50;;;;;;;;;;5052305;28;20223;-67
2023/01/04 12:32:41;;;;;;;0.30;0.30;;;;;;;;;;5052285;28;20235;-67
2023/01/04 12:35:27;;;;;;;0.30;0.30;;;;;;;;;;5071399;28;20206;-67
2023/01/04 12:37:54;;;;;;;0.67;0.40;;;;;;;;;;5067422;28;20215;-67
2023/01/04 12:40:39;;;;;;;0.67;0.40;;;;;;;;;;5052324;28;20234;-67
2023/01/04 12:43:19;;;;;;;0.40;0.40;;;;;;;;;;5058101;28;20203;-67
2023/01/04 12:49:02;;;;;;;0.33;0.33;;;;;;;;;;5060207;28;20208;-67
2023/01/04 12:51:21;;;;;;;0.33;0.33;;;;;;;;;;5054957;28;20230;-65
2023/01/04 12:53:52;;;;;;;0.60;0.60;;;;;;;;;;5071506;28;20234;-65
2023/01/04 12:56:19;;;;;;;0.43;0.40;;;;;;;;;;5071021;28;20227;-65
2023/01/04 12:59:07;;;;;;;0.40;0.40;;;;;;;;;;5071237;28;20230;-64
2023/01/04 13:01:36;;;;;;;1.20;0.60;;;;;;;;;;5071166;28;20317;-64
2023/01/04 13:04:24;;;;;;;0.30;0.30;;;;;;;;;;5058712;28;20204;-64
2023/01/04 13:06:51;;;;;;;0.60;0.60;;;;;;;;;;5057980;28;20673;-67
2023/01/04 13:09:21;;;;;;;0.60;0.60;;;;;;;;;;5052459;28;20242;-65
2023/01/04 13:12:05;;;;;;;0.90;0.50;;;;;;;;;;5058818;28;20206;-67
2023/01/04 13:14:36;;;;;;;0.67;0.67;;;;;;;;;;5069503;28;20229;-64
2023/01/04 13:17:13;;;;;;;0.63;0.63;;;;;;;;;;5060425;28;20215;-64
2023/01/04 13:19:42;;;;;;;0.50;0.50;;;;;;;;;;5071345;28;20211;-62
2023/01/04 13:22:12;;;;;;;1.20;1.00;;;;;;;;;;5058343;28;20231;-62
2023/01/04 13:24:43;;;;;;;0.57;0.57;;;;;;;;;;5067359;28;20673;-64
2023/01/04 13:27:15;;;;;;;0.50;0.50;;;;;;;;;;5058965;28;20658;-63
2023/01/04 13:29:42;;;;;;;0.43;0.43;;;;;;;;;;5052401;28;20219;-64
2023/01/04 13:32:12;;;;;;;0.47;0.43;;;;;;;;;;5051019;28;20207;-64
2023/01/04 13:34:40;;;;;;;0.50;0.50;;;;;;;;;;5060159;28;20222;-63
2023/01/04 13:37:09;;;;;;;0.63;0.63;;;;;;;;;;5050992;28;20211;-65
2023/01/04 13:39:36;;;;;;;0.70;0.70;;;;;;;;;;5059126;28;20261;-64
2023/01/04 13:42:04;;;;;;;0.70;0.70;;;;;;;;;;5052050;28;20235;-63
2023/01/04 13:44:55;;;;;;;0.63;0.63;;;;;;;;;;5053564;28;20211;-65
2023/01/04 13:47:23;;;;;;;0.70;0.70;;;;;;;;;;5045752;28;20206;-65
2023/01/04 13:49:51;;;;;;;0.83;0.80;;;;;;;;;;5057373;28;20211;-65
2023/01/04 13:52:21;;;;;;;0.70;0.70;;;;;;;;;;5059995;28;20207;-69
2023/01/04 13:54:49;;;;;;;0.50;0.50;;;;;;;;;;5060740;28;20234;-68
2023/01/04 13:57:19;;;;;;;2.30;0.60;;;;;;;;;;5050554;28;20243;-68
2023/01/04 13:59:46;;;;;;;0.80;0.80;;;;;;;;;;5055441;28;20695;-65
2023/01/04 14:02:16;;;;;;;1.23;0.67;;;;;;;;;;5066894;28;20253;-65
2023/01/04 14:04:46;;;;;;;1.90;0.70;;;;;;;;;;5057916;28;20227;-65
2023/01/04 14:07:13;;;;;;;0.40;0.40;;;;;;;;;;5057323;28;20212;-65
2023/01/04 14:09:45;;;;;;;0.60;0.60;;;;;;;;;;5051666;28;20235;-65
2023/01/04 14:12:14;;;;;;;0.60;0.60;;;;;;;;;;5068855;28;20624;-65
2023/01/04 14:14:47;;;;;;;0.50;0.50;;;;;;;;;;5067339;28;20202;-65
2023/01/04 14:17:17;;;;;;;0.37;0.37;;;;;;;;;;5069126;28;20199;-65
2023/01/04 14:19:47;;;;;;;0.50;0.50;;;;;;;;;;5068496;28;20203;-65
2023/01/04 14:22:27;;;;;;;0.40;0.40;;;;;;;;;;5068280;28;20597;-66
2023/01/04 14:24:55;;;;;;;0.60;0.60;;;;;;;;;;5066342;28;20261;-64
2023/01/04 14:27:32;;;;;;;0.33;0.33;;;;;;;;;;5069112;28;20261;-64
2023/01/04 14:30:00;;;;;;;0.40;0.40;;;;;;;;;;5053684;28;20666;-64
2023/01/04 14:32:27;;;;;;;0.50;0.50;;;;;;;;;;5049273;28;20226;-64
2023/01/04 14:34:56;;;;;;;0.40;0.40;;;;;;;;;;5050631;28;20207;-65
2023/01/04 14:37:23;;;;;;;0.50;0.43;;;;;;;;;;5049450;28;20204;-65
2023/01/04 14:39:50;;;;;;;0.33;0.33;;;;;;;;;;5066106;28;20588;-65
2023/01/04 14:42:24;;;;;;;0.40;0.40;;;;;;;;;;5063974;28;20227;-64
2023/01/04 14:44:51;;;;;;;0.60;0.60;;;;;;;;;;5057383;28;20622;-65
2023/01/04 14:47:18;;;;;;;1.73;0.93;;;;;;;;;;5068954;28;20222;-65
2023/01/04 14:49:45;;;;;;;0.47;0.47;;;;;;;;;;5068198;28;20277;-66
2023/01/04 14:52:20;;;;;;;1.83;0.60;;;;;;;;;;5068203;28;20257;-66
2023/01/04 14:54:47;;;;;;;0.30;0.30;;;;;;;;;;5058492;28;20349;-65
2023/01/04 14:57:14;;;;;;;0.27;0.27;;;;;;;;;;5061569;28;20254;-65
2023/01/04 14:59:42;;;;;;;0.40;0.40;;;;;;;;;;5066440;28;20211;-65
2023/01/04 15:02:10;;;;;;;0.40;0.40;;;;;;;;;;5061265;28;20223;-65
2023/01/04 15:04:37;;;;;;;0.20;0.20;;;;;;;;;;5058630;28;20291;-66
2023/01/04 15:07:04;;;;;;;0.53;0.53;;;;;;;;;;5056134;28;20195;-67
2023/01/04 15:09:34;;;;;;;0.70;0.70;;;;;;;;;;5068113;28;20774;-64
2023/01/04 15:12:01;;;;;;;0.30;0.30;;;;;;;;;;5053133;28;20203;-66
2023/01/04 15:14:28;;;;;;;0.30;0.30;;;;;;;;;;5049291;28;20647;-65
2023/01/04 15:16:55;;;;;;;0.27;0.27;;;;;;;;;;5064696;28;20595;-66
2023/01/04 15:19:22;;;;;;;0.30;0.30;;;;;;;;;;5061920;28;20492;-66
2023/01/04 15:21:49;;;;;;;0.53;0.50;;;;;;;;;;5048861;28;20702;-66
2023/01/04 15:24:17;;;;;;;0.50;0.50;;;;;;;;;;5054117;28;20199;-66
2023/01/04 15:26:45;;;;;;;0.43;0.40;;;;;;;;;;5064026;28;20277;-66
2023/01/04 15:29:12;;;;;;;0.33;0.33;;;;;;;;;;5048453;28;20572;-66
2023/01/04 15:31:41;;;;;;;0.50;0.50;;;;;;;;;;5050830;28;20215;-65
2023/01/04 15:34:08;;;;;;;0.40;0.40;;;;;;;;;;5070603;28;20590;-66
2023/01/04 15:36:37;;;;;;;0.50;0.50;;;;;;;;;;5067587;28;20215;-66
2023/01/04 15:39:04;;;;;;;0.40;0.40;;;;;;;;;;5072158;28;20218;-66
2023/01/04 15:44:17;;;;;;;0.50;0.50;;;;;;;;;;5058526;28;20288;-66
2023/01/04 15:46:45;;;;;;;0.40;0.40;;;;;;;;;;5070373;28;20229;-66
2023/01/04 15:49:12;;;;;;;1.27;0.27;;;;;;;;;;5072405;28;20246;-66
2023/01/04 15:51:39;;;;;;;0.30;0.30;;;;;;;;;;5064934;28;20212;-66